createdAt,value
2022-11-23T00:01:17.960Z,1.45
2022-11-23T00:03:47.315Z,1.35
2022-11-23T00:06:16.149Z,1.20
2022-11-23T00:08:44.932Z,1.20
2022-11-23T00:11:13.435Z,1.33
2022-11-23T00:13:42.110Z,1.25
2022-11-23T00:16:11.563Z,1.20
2022-11-23T00:18:41.132Z,1.02
2022-11-23T00:21:10.029Z,1.00
2022-11-23T00:23:38.567Z,1.10
2022-11-23T00:26:07.820Z,1.10
2022-11-23T00:28:38.768Z,1.30
2022-11-23T00:33:34.995Z,1.20
2022-11-23T00:36:06.800Z,1.20
2022-11-23T00:38:35.056Z,1.50
2022-11-23T00:41:05.399Z,1.13
2022-11-23T00:43:33.929Z,1.03
2022-11-23T00:46:06.705Z,1.05
2022-11-23T00:48:35.119Z,1.10
2022-11-23T00:51:06.732Z,1.30
2022-11-23T00:53:35.263Z,1.10
2022-11-23T00:56:03.593Z,1.10
2022-11-23T00:58:32.016Z,1.27
2022-11-23T01:01:08.603Z,0.95
2022-11-23T01:03:37.969Z,1.20
2022-11-23T01:06:10.094Z,1.30
2022-11-23T01:08:39.106Z,1.13
2022-11-23T01:11:09.919Z,1.25
2022-11-23T01:13:39.343Z,1.27
2022-11-23T01:16:10.997Z,1.10
2022-11-23T01:18:39.395Z,1.27
2022-11-23T01:21:09.526Z,1.10
2022-11-23T01:23:38.027Z,1.30
2022-11-23T01:26:07.529Z,1.17
2022-11-23T01:28:36.077Z,1.15
2022-11-23T01:31:09.148Z,0.90
2022-11-23T01:33:37.555Z,1.02
2022-11-23T01:36:12.624Z,1.23
2022-11-23T01:38:40.822Z,1.20
2022-11-23T01:41:10.026Z,1.00
2022-11-23T01:43:38.102Z,0.95
2022-11-23T01:46:07.190Z,0.95
2022-11-23T01:48:40.118Z,1.15
2022-11-23T01:51:13.693Z,0.88
2022-11-23T01:53:42.494Z,1.00
2022-11-23T01:56:15.862Z,1.10
2022-11-23T01:58:47.655Z,1.13
2022-11-23T02:01:16.393Z,1.20
2022-11-23T02:03:45.698Z,0.82
2022-11-23T02:06:18.312Z,0.90
2022-11-23T02:08:47.196Z,1.02
2022-11-23T02:11:17.398Z,1.10
2022-11-23T02:13:48.774Z,0.70
2022-11-23T02:16:18.099Z,1.17
2022-11-23T02:18:48.870Z,1.00
2022-11-23T02:21:18.515Z,1.00
2022-11-23T02:23:53.859Z,0.88
2022-11-23T02:26:26.170Z,1.00
2022-11-23T02:28:59.418Z,1.08
2022-11-23T02:34:13.940Z,1.13
2022-11-23T02:36:43.616Z,0.80
2022-11-23T02:39:14.341Z,0.85
2022-11-23T02:41:46.533Z,1.05
2022-11-23T02:44:26.746Z,1.00
2022-11-23T02:46:55.718Z,1.03
2022-11-23T02:49:23.867Z,1.10
2022-11-23T02:51:52.154Z,0.70
2022-11-23T02:54:20.332Z,0.95
2022-11-23T02:56:49.948Z,0.93
2022-11-23T02:59:18.192Z,1.15
2022-11-23T03:01:46.568Z,1.00
2022-11-23T03:04:14.976Z,0.95
2022-11-23T03:06:43.582Z,1.20
2022-11-23T03:09:11.747Z,1.00
2022-11-23T03:11:39.886Z,0.73
2022-11-23T03:14:09.509Z,0.98
2022-11-23T03:16:37.672Z,0.70
2022-11-23T03:19:06.040Z,0.90
2022-11-23T03:21:34.117Z,0.93
2022-11-23T03:24:02.270Z,0.70
2022-11-23T03:26:30.589Z,0.88
2022-11-23T03:28:58.714Z,1.00
2022-11-23T03:31:28.509Z,0.80
2022-11-23T03:33:56.666Z,0.65
2022-11-23T03:36:24.793Z,1.00
2022-11-23T03:38:52.871Z,0.82
2022-11-23T03:41:21.133Z,1.00
2022-11-23T03:43:49.192Z,1.10
2022-11-23T03:46:17.275Z,0.90
2022-11-23T03:48:46.688Z,0.80
2022-11-23T03:51:14.801Z,0.90
2022-11-23T03:53:42.969Z,1.05
2022-11-23T03:56:11.611Z,1.10
2022-11-23T03:58:39.755Z,0.73
2022-11-23T04:01:07.963Z,1.00
2022-11-23T04:03:36.106Z,0.82
2022-11-23T04:06:05.824Z,0.90
2022-11-23T04:08:34.134Z,0.80
2022-11-23T04:11:02.303Z,1.05
2022-11-23T04:13:30.374Z,0.98
2022-11-23T04:15:58.453Z,0.70
2022-11-23T04:18:26.574Z,0.70
2022-11-23T04:20:54.678Z,0.80
2022-11-23T04:23:24.356Z,0.73
2022-11-23T04:25:52.460Z,0.75
2022-11-23T04:28:20.672Z,1.00
2022-11-23T04:30:48.814Z,0.70
2022-11-23T04:33:16.985Z,0.77
2022-11-23T04:35:45.084Z,0.77
2022-11-23T04:38:13.185Z,0.75
2022-11-23T04:40:42.670Z,0.93
2022-11-23T04:43:10.815Z,0.90
2022-11-23T04:45:42.231Z,0.70
2022-11-23T04:48:10.609Z,0.80
2022-11-23T04:50:40.679Z,1.10
2022-11-23T04:53:09.382Z,0.70
2022-11-23T04:55:37.510Z,0.73
2022-11-23T04:58:07.049Z,0.77
2022-11-23T05:00:35.176Z,0.98
2022-11-23T05:03:03.341Z,0.85
2022-11-23T05:05:31.433Z,0.82
2022-11-23T05:08:00.114Z,0.88
2022-11-23T05:10:28.210Z,0.85
2022-11-23T05:12:56.330Z,0.93
2022-11-23T05:15:25.750Z,0.82
2022-11-23T05:17:58.795Z,0.90
2022-11-23T05:20:27.233Z,0.90
2022-11-23T05:22:55.310Z,1.27
2022-11-23T05:25:23.730Z,0.93
2022-11-23T05:27:52.291Z,0.70
2022-11-23T05:30:20.565Z,1.10
2022-11-23T05:32:50.143Z,0.70
2022-11-23T05:35:18.555Z,0.90
2022-11-23T05:37:46.691Z,0.60
2022-11-23T05:40:15.268Z,0.77
2022-11-23T05:42:43.359Z,0.82
2022-11-23T05:45:12.053Z,0.90
2022-11-23T05:47:40.201Z,0.90
2022-11-23T05:50:10.790Z,0.90
2022-11-23T05:52:38.882Z,0.88
2022-11-23T05:55:07.411Z,0.93
2022-11-23T05:57:35.488Z,0.90
2022-11-23T06:00:04.024Z,0.63
2022-11-23T06:02:35.629Z,0.50
2022-11-23T06:05:07.342Z,0.70
2022-11-23T06:07:37.204Z,0.70
2022-11-23T06:10:07.391Z,0.63
2022-11-23T06:12:35.557Z,0.80
2022-11-23T06:15:03.778Z,0.63
2022-11-23T06:17:31.873Z,0.82
2022-11-23T06:19:59.938Z,0.60
2022-11-23T06:22:28.045Z,0.80
2022-11-23T06:24:57.534Z,0.80
2022-11-23T06:27:25.671Z,0.90
2022-11-23T06:29:53.821Z,0.65
2022-11-23T06:32:21.899Z,0.98
2022-11-23T06:34:49.971Z,0.85
2022-11-23T06:37:18.135Z,1.00
2022-11-23T06:39:46.246Z,1.08
2022-11-23T06:45:04.340Z,0.90
2022-11-23T06:47:32.422Z,1.00
2022-11-23T06:50:00.564Z,1.17
2022-11-23T06:52:28.677Z,1.48
2022-11-23T06:54:56.890Z,1.38
2022-11-23T06:57:26.460Z,1.20
2022-11-23T06:59:54.623Z,1.10
2022-11-23T07:02:22.717Z,1.30
2022-11-23T07:04:52.934Z,1.27
2022-11-23T07:07:21.117Z,1.27
2022-11-23T07:09:49.203Z,1.45
2022-11-23T07:12:17.259Z,1.00
2022-11-23T07:14:46.843Z,1.35
2022-11-23T07:17:17.422Z,1.10
2022-11-23T07:19:45.793Z,0.88
2022-11-23T07:22:13.910Z,1.25
2022-11-23T07:24:46.541Z,1.05
2022-11-23T07:27:15.157Z,1.35
2022-11-23T07:29:43.322Z,1.20
2022-11-23T07:32:14.960Z,1.50
2022-11-23T07:34:43.152Z,1.15
2022-11-23T07:37:11.197Z,1.20
2022-11-23T07:39:56.965Z,1.10
2022-11-23T07:42:37.212Z,1.02
2022-11-23T07:45:10.421Z,1.05
2022-11-23T07:47:40.282Z,1.33
2022-11-23T07:50:10.056Z,1.08
2022-11-23T07:52:39.054Z,1.20
2022-11-23T07:55:07.910Z,1.02
2022-11-23T07:57:36.002Z,1.27
2022-11-23T08:00:05.182Z,2.53
2022-11-23T08:02:33.301Z,1.52
2022-11-23T08:05:02.737Z,1.58
2022-11-23T08:07:30.872Z,1.30
2022-11-23T08:09:59.004Z,1.10
2022-11-23T08:12:27.214Z,1.45
2022-11-23T08:14:55.321Z,1.42
2022-11-23T08:17:23.521Z,1.60
2022-11-23T08:19:51.615Z,1.58
2022-11-23T08:22:21.305Z,1.25
2022-11-23T08:24:49.663Z,1.25
2022-11-23T08:27:17.939Z,1.20
2022-11-23T08:29:46.074Z,1.38
2022-11-23T08:32:14.626Z,1.30
2022-11-23T08:34:44.423Z,1.00
2022-11-23T08:37:12.587Z,1.00
2022-11-23T08:39:42.087Z,1.20
2022-11-23T08:42:10.640Z,1.17
2022-11-23T08:44:38.714Z,1.20
2022-11-23T08:47:06.934Z,1.08
2022-11-23T08:49:35.031Z,1.10
2022-11-23T08:52:03.150Z,1.30
2022-11-23T08:54:32.627Z,1.20
2022-11-23T08:57:02.332Z,1.00
2022-11-23T08:59:30.419Z,1.27
2022-11-23T09:01:58.577Z,1.08
2022-11-23T09:04:27.667Z,1.13
2022-11-23T09:06:55.797Z,1.38
2022-11-23T09:09:24.106Z,1.23
2022-11-23T09:11:53.945Z,1.60
2022-11-23T09:14:23.760Z,1.15
2022-11-23T09:16:51.936Z,1.00
2022-11-23T09:19:20.087Z,1.17
2022-11-23T09:21:48.345Z,1.38
2022-11-23T09:24:16.572Z,1.20
2022-11-23T09:26:45.535Z,1.40
2022-11-23T09:29:13.882Z,1.40
2022-11-23T09:31:43.505Z,1.60
2022-11-23T09:34:14.079Z,1.30
2022-11-23T09:36:42.197Z,1.40
2022-11-23T09:39:10.351Z,1.40
2022-11-23T09:41:59.585Z,1.20
2022-11-23T09:44:37.052Z,1.38
2022-11-23T09:47:24.990Z,1.10
2022-11-23T09:50:03.036Z,1.45
2022-11-23T09:52:32.397Z,1.33
2022-11-23T09:55:06.532Z,1.63
2022-11-23T09:57:36.941Z,1.60
2022-11-23T10:00:09.612Z,1.60
2022-11-23T10:02:42.481Z,1.48
2022-11-23T10:05:16.924Z,1.40
2022-11-23T10:08:02.754Z,0.90
2022-11-23T10:10:41.717Z,1.20
2022-11-23T10:13:26.156Z,1.25
2022-11-23T10:16:18.519Z,1.27
2022-11-23T10:18:57.115Z,1.05
2022-11-23T10:21:34.214Z,1.40
2022-11-23T10:24:14.621Z,1.30
2022-11-23T10:26:45.283Z,1.40
2022-11-23T10:29:18.052Z,2.30
2022-11-23T10:31:54.004Z,1.58
2022-11-23T10:34:43.408Z,1.45
2022-11-23T10:37:13.421Z,1.45
2022-11-23T10:39:41.602Z,1.50
2022-11-23T10:42:21.177Z,1.38
2022-11-23T10:44:52.505Z,1.60
2022-11-23T10:47:41.697Z,1.65
2022-11-23T10:50:27.582Z,1.48
2022-11-23T10:52:57.937Z,2.10
2022-11-23T10:55:29.724Z,1.50
2022-11-23T10:57:58.767Z,1.90
2022-11-23T11:00:30.860Z,1.38
2022-11-23T11:03:00.326Z,1.70
2022-11-23T11:06:07.942Z,1.58
2022-11-23T11:08:22.736Z,1.88
2022-11-23T11:10:57.993Z,1.55
2022-11-23T11:13:31.962Z,1.83
2022-11-23T11:16:02.271Z,2.72
2022-11-23T11:18:33.156Z,1.40
2022-11-23T11:21:05.858Z,1.30
2022-11-23T11:23:35.799Z,1.50
2022-11-23T11:26:10.175Z,1.40
2022-11-23T11:28:42.223Z,1.42
2022-11-23T11:31:35.121Z,1.50
2022-11-23T11:34:14.875Z,1.45
2022-11-23T11:36:51.376Z,1.38
2022-11-23T11:39:27.093Z,1.70
2022-11-23T11:41:59.337Z,1.48
2022-11-23T11:44:28.048Z,1.45
2022-11-23T11:47:02.874Z,1.48
2022-11-23T11:49:34.557Z,1.70
2022-11-23T11:52:09.907Z,1.30
2022-11-23T11:54:44.993Z,1.30
2022-11-23T11:57:21.058Z,1.40
2022-11-23T11:59:52.955Z,1.27
2022-11-23T12:02:25.531Z,1.25
2022-11-23T12:05:01.102Z,1.67
2022-11-23T12:07:33.901Z,1.27
2022-11-23T12:10:07.490Z,1.20
2022-11-23T12:12:37.981Z,1.13
2022-11-23T12:15:33.339Z,1.30
2022-11-23T12:18:43.243Z,1.30
2022-11-23T12:21:28.093Z,1.63
2022-11-23T12:24:06.340Z,1.38
2022-11-23T12:26:46.442Z,1.13
2022-11-23T12:29:47.102Z,1.48
2022-11-23T12:32:31.725Z,1.27
2022-11-23T12:35:29.909Z,1.15
2022-11-23T12:38:11.790Z,1.40
2022-11-23T12:41:10.397Z,1.08
2022-11-23T12:43:54.678Z,1.35
2022-11-23T12:46:31.833Z,1.48
2022-11-23T12:49:20.024Z,1.30
2022-11-23T12:51:58.178Z,1.35
2022-11-23T12:54:38.293Z,1.17
2022-11-23T12:57:13.961Z,1.30
2022-11-23T12:59:47.820Z,1.40
2022-11-23T13:02:50.682Z,1.45
2022-11-23T13:05:36.923Z,1.48
2022-11-23T13:08:35.579Z,1.38
2022-11-23T13:11:18.254Z,1.42
2022-11-23T13:13:59.357Z,1.23
2022-11-23T13:19:20.396Z,1.23
2022-11-23T13:21:49.566Z,1.48
2022-11-23T13:24:29.802Z,1.35
2022-11-23T13:27:41.750Z,1.45
2022-11-23T13:30:26.089Z,1.20
2022-11-23T13:32:58.580Z,1.30
2022-11-23T13:36:09.472Z,1.20
2022-11-23T13:38:42.228Z,1.55
2022-11-23T13:44:13.190Z,1.63
2022-11-23T13:46:43.204Z,1.42
2022-11-23T13:49:31.616Z,1.45
2022-11-23T13:52:17.286Z,1.80
2022-11-23T13:54:56.730Z,1.60
2022-11-23T13:57:25.172Z,1.60
2022-11-23T13:59:53.662Z,1.45
2022-11-23T14:02:29.644Z,1.77
2022-11-23T14:05:32.774Z,1.60
2022-11-23T14:08:03.332Z,1.60
2022-11-23T14:10:33.214Z,1.50
2022-11-23T14:13:09.437Z,2.30
2022-11-23T14:15:40.593Z,2.45
2022-11-23T14:18:43.701Z,2.10
2022-11-23T14:21:15.976Z,2.08
2022-11-23T14:24:19.159Z,1.70
2022-11-23T14:27:07.900Z,1.88
2022-11-23T14:30:13.734Z,1.90
2022-11-23T14:32:53.081Z,1.70
2022-11-23T14:35:37.665Z,1.60
2022-11-23T14:38:39.992Z,2.20
2022-11-23T14:41:10.831Z,1.60
2022-11-23T14:43:42.916Z,1.52
2022-11-23T14:46:19.228Z,1.75
2022-11-23T14:48:48.003Z,2.35
2022-11-23T14:51:20.241Z,1.77
2022-11-23T14:53:51.315Z,1.50
2022-11-23T14:56:28.572Z,1.75
2022-11-23T14:59:02.085Z,1.80
2022-11-23T15:01:30.481Z,1.70
2022-11-23T15:03:59.591Z,1.90
2022-11-23T15:06:34.153Z,1.70
2022-11-23T15:09:10.128Z,2.00
2022-11-23T15:11:39.452Z,2.10
2022-11-23T15:14:19.001Z,1.40
2022-11-23T15:16:47.669Z,1.85
2022-11-23T15:19:20.335Z,1.83
2022-11-23T15:21:50.030Z,1.65
2022-11-23T15:24:24.234Z,2.00
2022-11-23T15:26:52.817Z,1.80
2022-11-23T15:29:32.019Z,1.60
2022-11-23T15:32:28.468Z,2.88
2022-11-23T15:34:50.434Z,3.03
2022-11-23T15:37:20.486Z,2.60
2022-11-23T15:39:49.534Z,2.72
2022-11-23T15:42:20.058Z,2.20
2022-11-23T15:44:51.564Z,2.25
2022-11-23T15:47:27.398Z,2.80
2022-11-23T15:50:01.235Z,2.50
2022-11-23T15:52:36.073Z,2.58
2022-11-23T15:55:09.838Z,2.38
2022-11-23T15:57:39.775Z,2.10
2022-11-23T16:00:10.195Z,2.50
2022-11-23T16:02:38.580Z,2.17
2022-11-23T16:05:14.403Z,2.25
2022-11-23T16:07:54.769Z,1.98
2022-11-23T16:10:25.070Z,2.30
2022-11-23T16:12:54.369Z,2.67
2022-11-23T16:15:38.429Z,2.67
2022-11-23T16:18:16.755Z,2.10
2022-11-23T16:20:45.504Z,2.17
2022-11-23T16:23:20.607Z,2.55
2022-11-23T16:25:55.789Z,2.42
2022-11-23T16:28:29.009Z,2.45
2022-11-23T16:30:57.919Z,2.50
2022-11-23T16:33:26.479Z,2.38
2022-11-23T16:35:55.026Z,2.33
2022-11-23T16:38:25.364Z,2.30
2022-11-23T16:40:53.557Z,1.95
2022-11-23T16:43:22.240Z,2.28
2022-11-23T16:45:52.427Z,2.20
2022-11-23T16:48:40.168Z,2.20
2022-11-23T16:51:10.885Z,2.13
2022-11-23T16:54:11.775Z,2.70
2022-11-23T16:56:31.635Z,2.50
2022-11-23T16:59:00.693Z,2.42
2022-11-23T17:01:31.379Z,2.22
2022-11-23T17:03:59.845Z,2.38
2022-11-23T17:06:28.118Z,2.22
2022-11-23T17:09:04.660Z,2.78
2022-11-23T17:11:38.512Z,2.92
2022-11-23T17:14:07.440Z,2.45
2022-11-23T17:16:35.679Z,2.50
2022-11-23T17:19:03.913Z,2.55
2022-11-23T17:21:32.023Z,2.20
2022-11-23T17:24:01.636Z,2.13
2022-11-23T17:26:35.677Z,2.55
2022-11-23T17:29:06.509Z,2.28
2022-11-23T17:31:34.979Z,2.53
2022-11-23T17:34:03.098Z,2.17
2022-11-23T17:36:32.335Z,2.28
2022-11-23T17:39:01.909Z,2.67
2022-11-23T17:41:30.043Z,2.20
2022-11-23T17:43:59.680Z,2.33
2022-11-23T17:46:31.519Z,2.53
2022-11-23T17:49:02.447Z,2.15
2022-11-23T17:51:31.137Z,2.78
2022-11-23T17:53:59.234Z,2.53
2022-11-23T17:56:28.846Z,2.05
2022-11-23T17:58:57.587Z,1.98
2022-11-23T18:01:25.965Z,2.10
2022-11-23T18:03:54.235Z,2.40
2022-11-23T18:06:24.473Z,2.40
2022-11-23T18:08:53.433Z,2.17
2022-11-23T18:11:22.432Z,2.05
2022-11-23T18:13:52.466Z,1.98
2022-11-23T18:16:21.426Z,2.20
2022-11-23T18:18:51.022Z,1.95
2022-11-23T18:21:19.528Z,1.85
2022-11-23T18:23:47.714Z,2.30
2022-11-23T18:26:18.993Z,2.45
2022-11-23T18:28:47.769Z,1.80
2022-11-23T18:31:18.006Z,2.05
2022-11-23T18:33:46.730Z,2.20
2022-11-23T18:36:15.141Z,2.38
2022-11-23T18:38:44.979Z,2.00
2022-11-23T18:41:13.407Z,2.85
2022-11-23T18:43:41.523Z,1.80
2022-11-23T18:46:11.421Z,2.20
2022-11-23T18:48:41.087Z,1.92
2022-11-23T18:51:11.893Z,2.20
2022-11-23T18:53:40.881Z,2.00
2022-11-23T18:56:10.089Z,2.25
2022-11-23T18:58:39.940Z,2.63
2022-11-23T19:01:12.316Z,2.00
2022-11-23T19:03:43.259Z,1.98
2022-11-23T19:06:13.693Z,1.88
2022-11-23T19:08:43.242Z,2.22
2022-11-23T19:11:16.232Z,2.20
2022-11-23T19:13:45.263Z,2.38
2022-11-23T19:16:16.067Z,1.92
2022-11-23T19:18:45.598Z,1.48
2022-11-23T19:21:15.715Z,2.10
2022-11-23T19:23:44.301Z,2.37
2022-11-23T19:26:12.384Z,2.05
2022-11-23T19:28:44.568Z,2.10
2022-11-23T19:31:14.265Z,1.83
2022-11-23T19:33:42.567Z,2.00
2022-11-23T19:36:14.371Z,1.85
2022-11-23T19:38:42.970Z,1.50
2022-11-23T19:41:11.434Z,1.77
2022-11-23T19:43:39.603Z,2.10
2022-11-23T19:46:11.834Z,1.92
2022-11-23T19:48:40.580Z,2.22
2022-11-23T19:51:13.062Z,1.80
2022-11-23T19:53:42.291Z,2.30
2022-11-23T19:56:13.435Z,2.15
2022-11-23T19:58:42.304Z,1.90
2022-11-23T20:01:12.759Z,1.90
2022-11-23T20:03:43.196Z,1.88
2022-11-23T20:06:15.334Z,1.80
2022-11-23T20:08:43.499Z,1.88
2022-11-23T20:11:13.632Z,1.90
2022-11-23T20:13:41.744Z,2.10
2022-11-23T20:16:13.010Z,2.05
2022-11-23T20:18:41.656Z,1.85
2022-11-23T20:21:13.849Z,2.20
2022-11-23T20:23:42.658Z,2.10
2022-11-23T20:26:14.326Z,1.80
2022-11-23T20:28:42.603Z,1.95
2022-11-23T20:31:20.108Z,1.63
2022-11-23T20:33:50.571Z,2.10
2022-11-23T20:36:21.908Z,1.65
2022-11-23T20:38:51.026Z,1.65
2022-11-23T20:41:20.968Z,2.28
2022-11-23T20:43:50.676Z,1.90
2022-11-23T20:46:38.314Z,1.90
2022-11-23T20:49:07.048Z,2.08
2022-11-23T20:51:36.630Z,1.90
2022-11-23T20:54:04.981Z,1.92
2022-11-23T20:56:33.400Z,1.77
2022-11-23T20:59:01.792Z,2.00
2022-11-23T21:01:30.222Z,2.05
2022-11-23T21:04:00.188Z,1.80
2022-11-23T21:06:30.106Z,1.65
2022-11-23T21:09:01.829Z,1.95
2022-11-23T21:11:47.862Z,2.15
2022-11-23T21:14:18.723Z,1.95
2022-11-23T21:16:52.851Z,2.03
2022-11-23T21:19:22.461Z,2.03
2022-11-23T21:21:51.051Z,1.90
2022-11-23T21:24:21.415Z,2.15
2022-11-23T21:26:49.907Z,1.50
2022-11-23T21:29:18.525Z,1.90
2022-11-23T21:31:48.939Z,2.00
2022-11-23T21:34:20.726Z,1.80
2022-11-23T21:36:49.224Z,1.80
2022-11-23T21:39:17.756Z,1.77
2022-11-23T21:41:48.041Z,1.67
2022-11-23T21:44:16.167Z,2.00
2022-11-23T21:46:44.531Z,1.90
2022-11-23T21:49:12.941Z,1.67
2022-11-23T21:51:42.700Z,1.92
2022-11-23T21:54:14.309Z,1.92
2022-11-23T21:56:43.083Z,1.83
2022-11-23T21:59:13.097Z,2.00
2022-11-23T22:01:41.893Z,1.95
2022-11-23T22:04:11.461Z,1.67
2022-11-23T22:06:41.918Z,1.80
2022-11-23T22:09:11.806Z,2.00
2022-11-23T22:11:43.107Z,1.70
2022-11-23T22:14:14.012Z,1.90
2022-11-23T22:16:43.758Z,2.10
2022-11-23T22:19:13.313Z,1.70
2022-11-23T22:21:42.786Z,1.83
2022-11-23T22:24:13.653Z,1.77
2022-11-23T22:26:41.852Z,1.90
2022-11-23T22:29:10.723Z,1.80
2022-11-23T22:31:40.718Z,1.83
2022-11-23T22:34:11.738Z,1.77
2022-11-23T22:36:41.138Z,1.85
2022-11-23T22:39:10.044Z,1.70
2022-11-23T22:41:38.623Z,1.52
2022-11-23T22:44:08.556Z,1.60
2022-11-23T22:46:37.604Z,1.60
2022-11-23T22:49:07.377Z,1.70
2022-11-23T22:51:35.450Z,2.00
2022-11-23T22:54:03.816Z,1.73
2022-11-23T22:56:32.754Z,1.75
2022-11-23T22:59:00.845Z,1.63
2022-11-23T23:01:30.725Z,2.10
2022-11-23T23:04:01.294Z,1.60
2022-11-23T23:06:33.530Z,1.88
2022-11-23T23:09:02.641Z,1.73
2022-11-23T23:11:32.497Z,1.58
2022-11-23T23:14:01.102Z,1.85
2022-11-23T23:16:30.134Z,1.50
2022-11-23T23:18:59.592Z,1.75
2022-11-23T23:21:30.627Z,1.90
2022-11-23T23:26:29.010Z,1.67
2022-11-23T23:28:58.471Z,1.60
2022-11-23T23:31:27.147Z,1.63
2022-11-23T23:33:55.270Z,1.70
2022-11-23T23:36:24.564Z,1.60
2022-11-23T23:38:54.275Z,1.30
2022-11-23T23:41:22.418Z,1.70
2022-11-23T23:43:50.602Z,1.65
2022-11-23T23:46:18.955Z,2.17
2022-11-23T23:48:47.207Z,1.70
2022-11-23T23:51:16.844Z,1.55
2022-11-23T23:53:45.600Z,1.63
2022-11-23T23:56:16.689Z,1.58
2022-11-23T23:58:45.149Z,1.42
